createdAt,value
2023-02-14T00:01:45.548Z,13.70
2023-02-14T00:04:12.552Z,11.05
2023-02-14T00:06:42.539Z,12.93
2023-02-14T00:09:15.183Z,12.88
2023-02-14T00:11:42.001Z,11.65
2023-02-14T00:14:27.266Z,12.38
2023-02-14T00:16:56.053Z,11.02
2023-02-14T00:19:23.528Z,12.52
2023-02-14T00:21:52.345Z,11.95
2023-02-14T00:24:23.287Z,11.48
2023-02-14T00:26:50.159Z,11.23
2023-02-14T00:29:21.053Z,10.45
2023-02-14T00:31:47.886Z,12.20
2023-02-14T00:34:17.449Z,10.93
2023-02-14T00:36:47.231Z,11.50
2023-02-14T00:39:14.294Z,11.55
2023-02-14T00:41:43.796Z,11.40
2023-02-14T00:44:13.201Z,11.00
2023-02-14T00:46:45.448Z,12.32
2023-02-14T00:49:12.195Z,11.07
2023-02-14T00:51:42.556Z,10.43
2023-02-14T00:54:09.341Z,9.70
2023-02-14T00:56:38.492Z,11.98
2023-02-14T00:59:05.178Z,10.40
2023-02-14T01:01:31.821Z,11.70
2023-02-14T01:04:03.697Z,9.65
2023-02-14T01:06:35.753Z,10.55
2023-02-14T01:09:02.472Z,13.57
2023-02-14T01:11:31.415Z,10.98
2023-02-14T01:14:00.695Z,10.77
2023-02-14T01:16:30.247Z,11.65
2023-02-14T01:18:58.401Z,11.02
2023-02-14T01:21:28.902Z,12.15
2023-02-14T01:23:56.609Z,10.77
2023-02-14T01:26:25.883Z,10.63
2023-02-14T01:28:52.556Z,9.48
2023-02-14T01:31:24.422Z,9.48
2023-02-14T01:33:55.865Z,9.32
2023-02-14T01:36:29.049Z,8.95
2023-02-14T01:38:59.962Z,9.63
2023-02-14T01:41:31.263Z,10.80
2023-02-14T01:46:36.221Z,11.30
2023-02-14T01:49:10.554Z,9.20
2023-02-14T01:51:41.116Z,10.00
2023-02-14T01:54:07.756Z,9.43
2023-02-14T01:56:39.580Z,9.00
2023-02-14T01:59:09.903Z,9.88
2023-02-14T02:01:36.658Z,8.68
2023-02-14T02:04:08.270Z,11.50
2023-02-14T02:06:39.622Z,8.52
2023-02-14T02:09:10.852Z,8.90
2023-02-14T02:14:12.349Z,11.23
2023-02-14T02:16:56.775Z,8.93
2023-02-14T02:20:05.271Z,8.60
2023-02-14T02:22:51.383Z,8.73
2023-02-14T02:25:46.365Z,8.65
2023-02-14T02:28:38.430Z,8.60
2023-02-14T02:31:40.913Z,8.55
2023-02-14T02:34:28.959Z,8.35
2023-02-14T02:37:26.604Z,8.50
2023-02-14T02:40:07.742Z,8.98
2023-02-14T02:42:49.456Z,8.63
2023-02-14T02:46:03.328Z,9.23
2023-02-14T02:48:58.202Z,8.45
2023-02-14T02:51:53.605Z,8.68
2023-02-14T02:54:27.430Z,8.60
2023-02-14T02:56:58.740Z,8.43
2023-02-14T03:02:07.000Z,8.85
2023-02-14T03:04:53.440Z,8.38
2023-02-14T03:07:45.488Z,8.02
2023-02-14T03:10:26.221Z,9.88
2023-02-14T03:13:11.093Z,8.50
2023-02-14T03:15:56.890Z,8.32
2023-02-14T03:18:48.326Z,8.18
2023-02-14T03:24:24.646Z,8.50
2023-02-14T03:26:54.266Z,8.20
2023-02-14T03:29:38.856Z,8.50
2023-02-14T03:32:23.470Z,8.98
2023-02-14T03:35:04.221Z,7.50
2023-02-14T03:37:46.069Z,9.43
2023-02-14T03:40:17.741Z,7.68
2023-02-14T03:42:58.178Z,7.97
2023-02-14T03:45:38.052Z,8.05
2023-02-14T03:48:08.151Z,7.30
2023-02-14T03:50:35.002Z,7.40
2023-02-14T03:53:01.686Z,7.45
2023-02-14T03:55:33.179Z,7.72
2023-02-14T03:58:22.852Z,9.38
2023-02-14T04:00:55.691Z,8.07
2023-02-14T04:03:25.363Z,7.25
2023-02-14T04:05:52.557Z,7.72
2023-02-14T04:08:24.307Z,7.60
2023-02-14T04:10:53.897Z,8.40
2023-02-14T04:13:23.439Z,7.50
2023-02-14T04:15:50.286Z,7.85
2023-02-14T04:18:37.995Z,7.90
2023-02-14T04:21:07.754Z,7.63
2023-02-14T04:23:34.468Z,7.97
2023-02-14T04:26:07.026Z,8.18
2023-02-14T04:28:38.378Z,8.27
2023-02-14T04:31:07.719Z,7.43
2023-02-14T04:33:39.401Z,7.28
2023-02-14T04:36:06.488Z,8.55
2023-02-14T04:38:35.426Z,6.30
2023-02-14T04:41:04.461Z,7.63
2023-02-14T04:43:34.071Z,7.55
2023-02-14T04:46:03.436Z,7.25
2023-02-14T04:48:32.605Z,7.32
2023-02-14T04:51:02.046Z,6.60
2023-02-14T04:53:28.820Z,6.82
2023-02-14T04:55:57.738Z,7.15
2023-02-14T04:58:27.254Z,7.05
2023-02-14T05:00:56.141Z,7.43
2023-02-14T05:03:25.439Z,7.22
2023-02-14T05:05:54.234Z,7.53
2023-02-14T05:08:20.917Z,7.70
2023-02-14T05:10:49.716Z,7.38
2023-02-14T05:13:17.588Z,7.03
2023-02-14T05:15:47.736Z,7.22
2023-02-14T05:18:16.622Z,9.18
2023-02-14T05:20:45.672Z,6.95
2023-02-14T05:23:14.723Z,6.97
2023-02-14T05:25:41.474Z,7.15
2023-02-14T05:28:12.946Z,7.05
2023-02-14T05:30:42.199Z,6.63
2023-02-14T05:33:11.465Z,6.72
2023-02-14T05:35:40.262Z,7.25
2023-02-14T05:38:09.015Z,7.10
2023-02-14T05:40:35.690Z,6.40
2023-02-14T05:43:04.505Z,7.40
2023-02-14T05:45:35.831Z,7.30
2023-02-14T05:48:06.230Z,7.15
2023-02-14T05:50:35.142Z,5.70
2023-02-14T05:53:02.101Z,6.70
2023-02-14T05:55:31.185Z,7.03
2023-02-14T05:58:00.385Z,6.82
2023-02-14T06:00:30.166Z,6.85
2023-02-14T06:02:58.906Z,7.18
2023-02-14T06:05:25.594Z,7.88
2023-02-14T06:07:54.518Z,6.75
2023-02-14T06:10:24.838Z,7.22
2023-02-14T06:12:52.416Z,6.65
2023-02-14T06:15:19.287Z,7.15
2023-02-14T06:17:48.071Z,7.53
2023-02-14T06:20:16.948Z,6.78
2023-02-14T06:22:43.608Z,6.72
2023-02-14T06:25:12.446Z,7.22
2023-02-14T06:27:39.088Z,7.32
2023-02-14T06:30:09.073Z,7.20
2023-02-14T06:32:38.068Z,7.50
2023-02-14T06:35:08.555Z,6.72
2023-02-14T06:37:42.250Z,6.23
2023-02-14T06:40:10.147Z,6.68
2023-02-14T06:42:39.084Z,6.95
2023-02-14T06:45:06.280Z,7.43
2023-02-14T06:47:37.798Z,7.28
2023-02-14T06:50:05.272Z,6.65
2023-02-14T06:52:36.390Z,7.82
2023-02-14T06:55:05.814Z,6.55
2023-02-14T06:57:37.439Z,6.40
2023-02-14T07:00:04.531Z,6.55
2023-02-14T07:02:33.769Z,6.60
2023-02-14T07:05:03.067Z,8.43
2023-02-14T07:07:34.881Z,8.52
2023-02-14T07:10:01.777Z,7.10
2023-02-14T07:12:31.213Z,7.78
2023-02-14T07:15:00.020Z,27.02
2023-02-14T07:17:28.874Z,18.42
2023-02-14T07:19:59.380Z,15.10
2023-02-14T07:22:30.309Z,14.17
2023-02-14T07:24:57.085Z,14.70
2023-02-14T07:27:23.764Z,12.63
2023-02-14T07:29:52.603Z,14.00
2023-02-14T07:32:24.172Z,13.35
2023-02-14T07:34:54.292Z,12.82
2023-02-14T07:37:21.102Z,12.68
2023-02-14T07:39:49.888Z,11.40
2023-02-14T07:42:16.483Z,11.40
2023-02-14T07:44:45.293Z,12.88
2023-02-14T07:47:16.747Z,10.70
2023-02-14T07:49:45.515Z,13.52
2023-02-14T07:52:14.893Z,10.95
2023-02-14T07:55:00.076Z,11.30
2023-02-14T07:57:32.011Z,12.60
2023-02-14T08:00:03.477Z,10.95
2023-02-14T08:02:32.688Z,10.90
2023-02-14T08:05:01.780Z,11.48
2023-02-14T08:07:33.024Z,11.48
2023-02-14T08:10:01.013Z,11.75
2023-02-14T08:12:49.557Z,11.93
2023-02-14T08:15:35.019Z,11.05
2023-02-14T08:18:01.758Z,11.20
2023-02-14T08:20:30.521Z,12.18
2023-02-14T08:22:57.180Z,11.45
2023-02-14T08:25:24.001Z,9.88
2023-02-14T08:27:50.565Z,11.52
2023-02-14T08:30:17.368Z,10.60
2023-02-14T08:32:44.216Z,10.30
2023-02-14T08:35:13.145Z,11.00
2023-02-14T08:37:41.998Z,10.93
2023-02-14T08:40:09.162Z,10.25
2023-02-14T08:42:36.111Z,10.80
2023-02-14T08:45:05.378Z,10.63
2023-02-14T08:47:35.851Z,11.35
2023-02-14T08:50:03.351Z,9.67
2023-02-14T08:52:29.986Z,10.60
2023-02-14T08:55:01.899Z,10.05
2023-02-14T08:57:31.115Z,10.80
2023-02-14T09:00:00.464Z,9.88
2023-02-14T09:02:29.639Z,11.38
2023-02-14T09:04:58.479Z,9.65
2023-02-14T09:07:25.288Z,10.18
2023-02-14T09:09:52.882Z,9.70
2023-02-14T09:12:24.898Z,10.02
2023-02-14T09:14:51.672Z,10.68
2023-02-14T09:17:18.592Z,10.27
2023-02-14T09:19:47.900Z,10.95
2023-02-14T09:22:19.348Z,10.15
2023-02-14T09:24:48.182Z,9.35
2023-02-14T09:27:14.788Z,10.23
2023-02-14T09:29:41.519Z,10.20
2023-02-14T09:32:11.136Z,9.98
2023-02-14T09:34:41.009Z,10.05
2023-02-14T09:37:09.971Z,10.02
2023-02-14T09:39:37.252Z,9.75
2023-02-14T09:42:36.272Z,9.93
2023-02-14T09:45:15.293Z,9.55
2023-02-14T09:47:51.965Z,9.55
2023-02-14T09:50:26.609Z,9.27
2023-02-14T09:52:57.246Z,9.43
2023-02-14T09:55:24.033Z,11.32
2023-02-14T09:58:41.107Z,10.15
2023-02-14T10:01:15.716Z,10.75
2023-02-14T10:04:07.139Z,10.80
2023-02-14T10:06:47.655Z,10.40
2023-02-14T10:09:48.026Z,9.70
2023-02-14T10:13:04.152Z,10.30
2023-02-14T10:15:35.748Z,10.13
2023-02-14T10:18:14.186Z,10.48
2023-02-14T10:20:47.074Z,11.45
2023-02-14T10:23:36.103Z,10.80
2023-02-14T10:26:25.166Z,9.90
2023-02-14T10:28:56.515Z,10.65
2023-02-14T10:31:26.137Z,10.65
2023-02-14T10:33:57.858Z,11.38
2023-02-14T10:36:39.999Z,10.80
2023-02-14T10:39:37.582Z,9.75
2023-02-14T10:42:11.395Z,9.50
2023-02-14T10:45:12.583Z,10.18
2023-02-14T10:48:06.358Z,10.82
2023-02-14T10:50:40.898Z,10.52
2023-02-14T10:53:10.480Z,10.68
2023-02-14T10:55:57.090Z,11.13
2023-02-14T10:58:27.520Z,10.57
2023-02-14T11:01:17.494Z,10.20
2023-02-14T11:04:08.719Z,10.35
2023-02-14T11:06:37.645Z,10.52
2023-02-14T11:09:04.531Z,10.38
2023-02-14T11:11:38.167Z,16.95
2023-02-14T11:14:26.670Z,11.23
2023-02-14T11:16:54.348Z,10.38
2023-02-14T11:19:24.897Z,11.70
2023-02-14T11:21:52.330Z,9.63
2023-02-14T11:24:25.122Z,10.77
2023-02-14T11:26:53.101Z,9.48
2023-02-14T11:29:29.139Z,10.13
2023-02-14T11:31:59.119Z,10.23
2023-02-14T11:34:32.028Z,9.57
2023-02-14T11:36:58.816Z,10.35
2023-02-14T11:39:31.862Z,10.57
2023-02-14T11:42:04.193Z,9.80
2023-02-14T11:44:33.128Z,10.00
2023-02-14T11:47:43.099Z,10.25
2023-02-14T11:50:23.699Z,10.07
2023-02-14T11:52:57.127Z,9.90
2023-02-14T11:55:33.694Z,9.52
2023-02-14T11:58:01.298Z,10.40
2023-02-14T12:00:33.897Z,10.15
2023-02-14T12:03:04.777Z,10.35
2023-02-14T12:05:46.762Z,10.30
2023-02-14T12:08:13.571Z,9.32
2023-02-14T12:10:42.351Z,8.95
2023-02-14T12:13:08.907Z,10.07
2023-02-14T12:15:41.428Z,9.65
2023-02-14T12:18:24.900Z,9.05
2023-02-14T12:21:02.814Z,9.10
2023-02-14T12:24:07.450Z,9.52
2023-02-14T12:26:42.189Z,9.52
2023-02-14T12:29:16.719Z,9.52
2023-02-14T12:31:45.705Z,9.65
2023-02-14T12:34:12.965Z,9.07
2023-02-14T12:36:45.908Z,9.75
2023-02-14T12:39:38.224Z,9.07
2023-02-14T12:42:30.015Z,8.88
2023-02-14T12:45:06.124Z,8.77
2023-02-14T12:47:42.265Z,8.07
2023-02-14T12:50:42.871Z,9.70
2023-02-14T12:53:09.442Z,9.32
2023-02-14T12:56:08.531Z,8.82
2023-02-14T12:58:49.948Z,8.90
2023-02-14T13:01:36.758Z,9.05
2023-02-14T13:04:35.980Z,8.95
2023-02-14T13:07:37.751Z,8.85
2023-02-14T13:10:27.580Z,8.73
2023-02-14T13:13:04.898Z,11.70
2023-02-14T13:15:46.897Z,11.45
2023-02-14T13:18:19.661Z,10.88
2023-02-14T13:20:56.695Z,9.77
2023-02-14T13:23:50.107Z,11.98
2023-02-14T13:26:22.816Z,9.60
2023-02-14T13:29:10.353Z,12.30
2023-02-14T13:31:39.796Z,9.40
2023-02-14T13:34:18.478Z,11.38
2023-02-14T13:36:50.824Z,12.23
2023-02-14T13:39:38.332Z,9.82
2023-02-14T13:42:08.277Z,9.35
2023-02-14T13:44:50.609Z,8.70
2023-02-14T13:47:24.001Z,11.02
2023-02-14T13:49:55.436Z,11.70
2023-02-14T13:52:48.016Z,12.55
2023-02-14T13:55:25.282Z,9.50
2023-02-14T13:58:21.853Z,10.25
2023-02-14T14:00:54.884Z,8.88
2023-02-14T14:03:27.726Z,9.68
2023-02-14T14:06:03.832Z,9.73
2023-02-14T14:08:31.409Z,9.30
2023-02-14T14:10:59.716Z,9.43
2023-02-14T14:13:41.937Z,9.18
2023-02-14T14:16:26.813Z,10.70
2023-02-14T14:19:21.932Z,9.13
2023-02-14T14:22:04.788Z,8.88
2023-02-14T14:24:34.597Z,10.20
2023-02-14T14:27:01.191Z,8.90
2023-02-14T14:29:33.702Z,9.40
2023-02-14T14:32:27.612Z,10.65
2023-02-14T14:34:55.203Z,9.65
2023-02-14T14:37:31.398Z,10.00
2023-02-14T14:40:01.788Z,8.27
2023-02-14T14:42:49.254Z,8.87
2023-02-14T14:45:24.283Z,10.05
2023-02-14T14:47:54.121Z,8.40
2023-02-14T14:50:31.244Z,9.05
2023-02-14T14:53:03.025Z,9.10
2023-02-14T14:55:34.576Z,8.18
2023-02-14T14:58:05.409Z,8.35
2023-02-14T15:00:36.314Z,8.55
2023-02-14T15:03:12.152Z,8.93
2023-02-14T15:05:45.390Z,8.93
2023-02-14T15:08:33.415Z,7.90
2023-02-14T15:11:39.026Z,9.13
2023-02-14T15:14:10.358Z,9.77
2023-02-14T15:19:26.755Z,7.90
2023-02-14T15:21:53.349Z,7.80
2023-02-14T15:24:20.078Z,8.48
2023-02-14T15:26:50.979Z,9.23
2023-02-14T15:29:44.542Z,10.05
2023-02-14T15:32:11.382Z,9.10
2023-02-14T15:34:40.507Z,8.38
2023-02-14T15:37:07.305Z,9.48
2023-02-14T15:39:41.543Z,8.98
2023-02-14T15:42:29.571Z,8.38
2023-02-14T15:45:28.201Z,8.13
2023-02-14T15:47:58.816Z,8.73
2023-02-14T15:50:27.907Z,11.88
2023-02-14T15:52:56.491Z,7.68
2023-02-14T15:55:26.297Z,8.77
2023-02-14T15:58:02.180Z,8.65
2023-02-14T16:00:31.664Z,9.23
2023-02-14T16:03:03.871Z,11.13
2023-02-14T16:05:32.768Z,9.55
2023-02-14T16:08:06.325Z,8.75
2023-02-14T16:10:39.703Z,12.00
2023-02-14T16:13:22.200Z,10.48
2023-02-14T16:16:10.990Z,9.70
2023-02-14T16:18:37.788Z,9.40
2023-02-14T16:21:11.261Z,11.35
2023-02-14T16:23:38.074Z,10.40
2023-02-14T16:26:11.407Z,10.68
2023-02-14T16:28:38.652Z,9.48
2023-02-14T16:31:10.975Z,11.27
2023-02-14T16:33:41.586Z,10.40
2023-02-14T16:36:22.846Z,11.63
2023-02-14T16:41:28.150Z,14.25
2023-02-14T16:44:02.539Z,15.10
2023-02-14T16:46:32.721Z,18.98
2023-02-14T16:49:02.418Z,15.65
2023-02-14T16:51:31.759Z,18.10
2023-02-14T16:54:00.453Z,18.70
2023-02-14T16:56:29.739Z,17.70
2023-02-14T16:58:59.488Z,20.73
2023-02-14T17:01:28.269Z,21.67
2023-02-14T17:03:55.634Z,20.77
2023-02-14T17:06:28.809Z,22.30
2023-02-14T17:08:59.219Z,22.40
2023-02-14T17:11:26.464Z,24.10
2023-02-14T17:13:55.970Z,26.60
2023-02-14T17:16:24.879Z,26.23
2023-02-14T17:18:57.259Z,25.95
2023-02-14T17:21:24.084Z,34.53
2023-02-14T17:23:57.224Z,56.78
2023-02-14T17:26:26.021Z,66.85
2023-02-14T17:28:52.744Z,83.40
2023-02-14T17:31:20.531Z,93.32
2023-02-14T17:33:52.044Z,96.70
2023-02-14T17:36:23.361Z,108.10
2023-02-14T17:41:23.009Z,103.57
2023-02-14T17:43:50.034Z,107.47
2023-02-14T17:46:19.952Z,114.55
2023-02-14T17:48:46.966Z,99.85
2023-02-14T17:51:17.771Z,98.25
2023-02-14T17:53:47.459Z,100.65
2023-02-14T17:56:24.484Z,102.40
2023-02-14T17:58:55.213Z,102.40
2023-02-14T18:01:25.390Z,104.13
2023-02-14T18:03:53.598Z,102.60
2023-02-14T18:06:22.741Z,108.63
2023-02-14T18:08:56.730Z,108.38
2023-02-14T18:11:27.252Z,97.72
2023-02-14T18:14:01.761Z,94.30
2023-02-14T18:16:33.233Z,91.38
2023-02-14T18:19:04.050Z,93.03
2023-02-14T18:21:35.685Z,84.55
2023-02-14T18:24:06.274Z,83.97
2023-02-14T18:26:37.617Z,81.80
2023-02-14T18:29:06.781Z,79.43
2023-02-14T18:31:37.788Z,85.38
2023-02-14T18:34:09.150Z,82.32
2023-02-14T18:36:37.003Z,82.15
2023-02-14T18:39:03.932Z,71.05
2023-02-14T18:41:33.063Z,80.15
2023-02-14T18:44:06.958Z,83.35
2023-02-14T18:46:36.287Z,88.43
2023-02-14T18:49:08.416Z,77.05
2023-02-14T18:51:39.381Z,80.47
2023-02-14T18:54:09.409Z,77.60
2023-02-14T18:56:41.327Z,71.10
2023-02-14T18:59:13.681Z,76.22
2023-02-14T19:01:45.058Z,70.43
2023-02-14T19:04:17.083Z,75.35
2023-02-14T19:06:45.891Z,71.07
2023-02-14T19:09:17.540Z,62.88
2023-02-14T19:11:44.448Z,70.25
2023-02-14T19:14:13.308Z,71.20
2023-02-14T19:16:50.262Z,63.30
2023-02-14T19:19:23.298Z,64.57
2023-02-14T19:21:53.200Z,62.20
2023-02-14T19:24:25.619Z,58.78
2023-02-14T19:26:57.786Z,63.72
2023-02-14T19:29:24.444Z,59.95
2023-02-14T19:31:56.146Z,57.75
2023-02-14T19:34:47.054Z,60.38
2023-02-14T19:37:13.802Z,58.50
2023-02-14T19:39:42.709Z,56.88
2023-02-14T19:42:11.847Z,57.65
2023-02-14T19:44:41.453Z,56.10
2023-02-14T19:47:25.590Z,54.45
2023-02-14T19:49:58.297Z,48.60
2023-02-14T19:52:27.246Z,51.35
2023-02-14T19:54:57.466Z,53.88
2023-02-14T19:57:29.158Z,50.08
2023-02-14T19:59:58.212Z,51.30
2023-02-14T20:02:25.016Z,50.20
2023-02-14T20:04:53.568Z,47.75
2023-02-14T20:07:20.337Z,49.95
2023-02-14T20:09:47.129Z,48.40
2023-02-14T20:12:18.952Z,48.72
2023-02-14T20:14:51.806Z,48.78
2023-02-14T20:17:21.106Z,45.97
2023-02-14T20:19:49.902Z,48.65
2023-02-14T20:22:23.287Z,46.47
2023-02-14T20:24:50.084Z,43.72
2023-02-14T20:27:20.046Z,45.35
2023-02-14T20:29:46.793Z,42.85
2023-02-14T20:32:15.223Z,44.10
2023-02-14T20:34:44.694Z,46.15
2023-02-14T20:37:14.678Z,43.22
2023-02-14T20:39:47.006Z,46.40
2023-02-14T20:42:13.699Z,41.45
2023-02-14T20:44:46.506Z,40.53
2023-02-14T20:47:14.212Z,45.17
2023-02-14T20:49:45.813Z,44.50
2023-02-14T20:52:18.041Z,39.78
2023-02-14T20:54:44.834Z,46.15
2023-02-14T20:57:14.328Z,47.10
2023-02-14T20:59:44.747Z,44.10
2023-02-14T21:02:13.828Z,47.23
2023-02-14T21:04:42.635Z,45.47
2023-02-14T21:07:12.629Z,47.88
2023-02-14T21:09:39.444Z,45.88
2023-02-14T21:12:09.253Z,43.72
2023-02-14T21:14:38.586Z,46.35
2023-02-14T21:17:08.434Z,41.17
2023-02-14T21:19:37.403Z,43.58
2023-02-14T21:22:06.360Z,45.42
2023-02-14T21:24:38.746Z,40.78
2023-02-14T21:27:05.455Z,39.65
2023-02-14T21:29:34.236Z,41.88
2023-02-14T21:32:03.911Z,41.20
2023-02-14T21:34:33.081Z,41.50
2023-02-14T21:36:59.855Z,37.38
2023-02-14T21:39:27.925Z,41.60
2023-02-14T21:41:54.852Z,46.75
2023-02-14T21:44:41.452Z,46.45
2023-02-14T21:47:11.128Z,44.88
2023-02-14T21:49:56.477Z,38.35
2023-02-14T21:52:23.323Z,41.47
2023-02-14T21:54:52.731Z,29.85
2023-02-14T21:58:19.574Z,28.67
2023-02-14T22:00:51.085Z,28.60
2023-02-14T22:03:23.459Z,34.00
2023-02-14T22:05:52.423Z,32.47
2023-02-14T22:08:21.808Z,29.60
2023-02-14T22:10:51.100Z,36.08
2023-02-14T22:13:17.712Z,30.38
2023-02-14T22:15:49.094Z,27.83
2023-02-14T22:18:17.891Z,29.17
2023-02-14T22:20:44.618Z,26.52
2023-02-14T22:23:13.630Z,30.23
2023-02-14T22:25:43.475Z,28.60
2023-02-14T22:28:12.516Z,24.25
2023-02-14T22:30:43.987Z,28.15
2023-02-14T22:33:19.069Z,25.80
2023-02-14T22:35:46.007Z,24.45
2023-02-14T22:38:15.757Z,23.88
2023-02-14T22:40:47.733Z,26.08
2023-02-14T22:43:17.431Z,26.17
2023-02-14T22:45:49.393Z,26.23
2023-02-14T22:48:20.640Z,25.13
2023-02-14T22:53:14.125Z,22.88
2023-02-14T22:55:40.913Z,20.80
2023-02-14T22:58:08.019Z,26.73
2023-02-14T23:00:36.995Z,21.15
2023-02-14T23:03:06.879Z,24.92
2023-02-14T23:05:36.393Z,20.63
2023-02-14T23:08:05.288Z,21.35
2023-02-14T23:10:34.331Z,19.45
2023-02-14T23:13:19.612Z,19.02
2023-02-14T23:16:04.964Z,22.33
2023-02-14T23:18:50.212Z,20.73
2023-02-14T23:21:35.532Z,20.05
2023-02-14T23:24:04.628Z,20.80
2023-02-14T23:26:33.437Z,18.23
2023-02-14T23:29:02.376Z,21.38
2023-02-14T23:31:31.292Z,25.50
2023-02-14T23:34:01.066Z,20.05
2023-02-14T23:36:27.840Z,19.85
2023-02-14T23:38:57.624Z,20.10
2023-02-14T23:41:42.759Z,18.52
2023-02-14T23:44:11.599Z,19.83
2023-02-14T23:46:40.425Z,20.48
2023-02-14T23:49:07.192Z,19.02
2023-02-14T23:51:34.629Z,19.05
2023-02-14T23:54:01.366Z,16.60
2023-02-14T23:56:28.413Z,20.23
2023-02-14T23:58:55.170Z,21.85
